sensor_id;sensor_type;location;lat;lon;timestamp;pressure;altitude;pressure_sealevel;temperature;humidity
85304;BME280;75708;47.930;13.782;2024-02-23T00:01:43;94052.75;;;6.03;86.55
85304;BME280;75708;47.930;13.782;2024-02-23T00:04:09;94045.31;;;6.00;86.27
85304;BME280;75708;47.930;13.782;2024-02-23T00:06:35;94065.38;;;6.27;84.95
85304;BME280;75708;47.930;13.782;2024-02-23T00:09:01;94054.31;;;6.10;86.08
85304;BME280;75708;47.930;13.782;2024-02-23T00:11:26;94057.19;;;6.18;85.70
85304;BME280;75708;47.930;13.782;2024-02-23T00:13:53;94073.69;;;6.05;86.12
85304;BME280;75708;47.930;13.782;2024-02-23T00:16:19;94044.03;;;5.73;86.75
85304;BME280;75708;47.930;13.782;2024-02-23T00:18:45;94081.91;;;5.93;87.25
85304;BME280;75708;47.930;13.782;2024-02-23T00:21:10;94087.47;;;5.97;86.70
85304;BME280;75708;47.930;13.782;2024-02-23T00:23:36;94079.78;;;6.06;86.11
85304;BME280;75708;47.930;13.782;2024-02-23T00:26:01;94099.91;;;6.07;86.35
85304;BME280;75708;47.930;13.782;2024-02-23T00:28:27;94106.25;;;6.00;86.99
85304;BME280;75708;47.930;13.782;2024-02-23T00:30:52;94123.44;;;6.18;86.82
85304;BME280;75708;47.930;13.782;2024-02-23T00:33:18;94116.81;;;6.26;85.46
85304;BME280;75708;47.930;13.782;2024-02-23T00:35:44;94124.75;;;6.31;85.19
85304;BME280;75708;47.930;13.782;2024-02-23T00:38:09;94120.25;;;6.26;86.07
85304;BME280;75708;47.930;13.782;2024-02-23T00:40:35;94127.38;;;6.41;85.13
85304;BME280;75708;47.930;13.782;2024-02-23T00:43:00;94124.41;;;6.53;84.50
85304;BME280;75708;47.930;13.782;2024-02-23T00:45:26;94124.69;;;6.56;83.90
85304;BME280;75708;47.930;13.782;2024-02-23T00:47:52;94141.16;;;6.43;84.57
85304;BME280;75708;47.930;13.782;2024-02-23T00:50:17;94142.25;;;6.27;86.45
85304;BME280;75708;47.930;13.782;2024-02-23T00:52:43;94160.78;;;6.37;85.42
85304;BME280;75708;47.930;13.782;2024-02-23T00:55:08;94130.59;;;6.18;85.74
85304;BME280;75708;47.930;13.782;2024-02-23T00:57:35;94159.25;;;6.16;86.63
85304;BME280;75708;47.930;13.782;2024-02-23T01:00:01;94168.75;;;6.37;85.33
85304;BME280;75708;47.930;13.782;2024-02-23T01:02:28;94172.94;;;6.53;84.78
85304;BME280;75708;47.930;13.782;2024-02-23T01:04:54;94165.53;;;6.45;84.44
85304;BME280;75708;47.930;13.782;2024-02-23T01:07:22;94172.44;;;6.46;84.55
85304;BME280;75708;47.930;13.782;2024-02-23T01:09:48;94195.22;;;6.52;83.85
85304;BME280;75708;47.930;13.782;2024-02-23T01:12:14;94163.19;;;6.28;83.74
85304;BME280;75708;47.930;13.782;2024-02-23T01:14:40;94207.97;;;6.50;83.77
85304;BME280;75708;47.930;13.782;2024-02-23T01:17:06;94227.34;;;6.40;86.08
85304;BME280;75708;47.930;13.782;2024-02-23T01:19:31;94246.97;;;6.34;86.49
85304;BME280;75708;47.930;13.782;2024-02-23T01:21:57;94238.47;;;6.42;86.56
85304;BME280;75708;47.930;13.782;2024-02-23T01:24:28;94222.59;;;6.22;87.36
85304;BME280;75708;47.930;13.782;2024-02-23T01:26:55;94251.75;;;6.32;88.83
85304;BME280;75708;47.930;13.782;2024-02-23T01:29:22;94231.78;;;6.70;85.49
85304;BME280;75708;47.930;13.782;2024-02-23T01:31:48;94231.25;;;6.73;84.96
85304;BME280;75708;47.930;13.782;2024-02-23T01:34:14;94257.78;;;6.78;85.35
85304;BME280;75708;47.930;13.782;2024-02-23T01:36:39;94260.41;;;6.78;85.32
85304;BME280;75708;47.930;13.782;2024-02-23T01:39:05;94387.81;;;6.63;88.28
85304;BME280;75708;47.930;13.782;2024-02-23T01:41:31;94351.72;;;6.52;85.92
85304;BME280;75708;47.930;13.782;2024-02-23T01:43:57;94387.75;;;6.18;86.98
85304;BME280;75708;47.930;13.782;2024-02-23T01:46:23;94390.41;;;6.23;85.81
85304;BME280;75708;47.930;13.782;2024-02-23T01:49:34;63859.44;;;-142.93;100.00
85304;BME280;75708;47.930;13.782;2024-02-23T01:52:00;63859.44;;;-142.93;100.00
85304;BME280;75708;47.930;13.782;2024-02-23T01:54:27;94400.78;;;6.55;82.89
85304;BME280;75708;47.930;13.782;2024-02-23T01:56:55;94403.19;;;6.61;82.32
85304;BME280;75708;47.930;13.782;2024-02-23T01:59:23;94403.75;;;6.68;81.70
85304;BME280;75708;47.930;13.782;2024-02-23T02:01:48;94402.13;;;6.57;83.82
85304;BME280;75708;47.930;13.782;2024-02-23T02:04:14;94401.06;;;6.58;81.88
85304;BME280;75708;47.930;13.782;2024-02-23T02:06:39;94401.06;;;6.78;81.04
85304;BME280;75708;47.930;13.782;2024-02-23T02:09:05;94402.66;;;6.74;82.03
85304;BME280;75708;47.930;13.782;2024-02-23T02:11:31;94394.69;;;6.64;81.87
85304;BME280;75708;47.930;13.782;2024-02-23T02:13:56;94402.41;;;6.81;79.67
85304;BME280;75708;47.930;13.782;2024-02-23T02:16:22;94413.53;;;6.78;81.46
85304;BME280;75708;47.930;13.782;2024-02-23T02:18:47;94415.94;;;6.90;80.21
85304;BME280;75708;47.930;13.782;2024-02-23T02:21:13;94411.94;;;6.82;79.89
85304;BME280;75708;47.930;13.782;2024-02-23T02:23:39;94428.94;;;6.81;81.78
85304;BME280;75708;47.930;13.782;2024-02-23T02:26:04;94426.00;;;6.77;82.21
85304;BME280;75708;47.930;13.782;2024-02-23T02:28:30;94426.53;;;6.74;83.05
85304;BME280;75708;47.930;13.782;2024-02-23T02:30:55;94425.47;;;6.80;82.74
85304;BME280;75708;47.930;13.782;2024-02-23T02:33:22;94432.91;;;6.73;83.06
85304;BME280;75708;47.930;13.782;2024-02-23T02:35:48;94429.97;;;6.70;83.70
85304;BME280;75708;47.930;13.782;2024-02-23T02:38:15;94436.91;;;6.91;82.00
85304;BME280;75708;47.930;13.782;2024-02-23T02:40:40;94426.81;;;6.83;81.79
85304;BME280;75708;47.930;13.782;2024-02-23T02:43:06;94449.38;;;6.91;82.45
85304;BME280;75708;47.930;13.782;2024-02-23T02:45:32;94452.56;;;7.03;80.17
85304;BME280;75708;47.930;13.782;2024-02-23T02:47:59;94454.66;;;7.06;79.70
85304;BME280;75708;47.930;13.782;2024-02-23T02:50:25;94473.25;;;7.16;78.59
85304;BME280;75708;47.930;13.782;2024-02-23T02:52:50;94450.69;;;7.24;78.41
85304;BME280;75708;47.930;13.782;2024-02-23T02:55:16;94462.06;;;7.39;75.87
85304;BME280;75708;47.930;13.782;2024-02-23T02:57:43;94469.25;;;7.39;76.54
85304;BME280;75708;47.930;13.782;2024-02-23T03:00:10;94463.66;;;7.40;75.93
85304;BME280;75708;47.930;13.782;2024-02-23T03:02:36;94470.84;;;7.40;75.40
85304;BME280;75708;47.930;13.782;2024-02-23T03:05:02;94464.16;;;7.57;70.40
85304;BME280;75708;47.930;13.782;2024-02-23T03:07:27;94462.06;;;7.54;72.83
85304;BME280;75708;47.930;13.782;2024-02-23T03:09:53;94463.38;;;7.62;72.04
85304;BME280;75708;47.930;13.782;2024-02-23T03:12:19;94454.88;;;7.60;70.08
85304;BME280;75708;47.930;13.782;2024-02-23T03:14:45;94463.63;;;7.71;71.77
85304;BME280;75708;47.930;13.782;2024-02-23T03:17:11;94457.75;;;7.79;68.94
85304;BME280;75708;47.930;13.782;2024-02-23T03:19:37;94470.53;;;7.62;69.90
85304;BME280;75708;47.930;13.782;2024-02-23T03:22:03;94484.63;;;7.62;70.47
85304;BME280;75708;47.930;13.782;2024-02-23T03:24:29;94484.63;;;7.57;71.92
85304;BME280;75708;47.930;13.782;2024-02-23T03:26:54;94486.53;;;7.46;71.49
85304;BME280;75708;47.930;13.782;2024-02-23T03:29:21;94498.47;;;7.39;72.97
85304;BME280;75708;47.930;13.782;2024-02-23T03:31:50;94507.78;;;7.26;72.89
85304;BME280;75708;47.930;13.782;2024-02-23T03:34:15;94513.88;;;7.16;74.41
85304;BME280;75708;47.930;13.782;2024-02-23T03:36:41;94518.66;;;7.09;74.82
85304;BME280;75708;47.930;13.782;2024-02-23T03:39:06;94517.34;;;7.02;74.81
85304;BME280;75708;47.930;13.782;2024-02-23T03:41:32;94515.72;;;6.86;77.68
85304;BME280;75708;47.930;13.782;2024-02-23T03:43:57;94527.13;;;6.76;77.58
85304;BME280;75708;47.930;13.782;2024-02-23T03:46:24;94534.78;;;6.67;78.49
85304;BME280;75708;47.930;13.782;2024-02-23T03:48:49;94534.75;;;6.57;79.78
85304;BME280;75708;47.930;13.782;2024-02-23T03:51:15;94524.41;;;6.51;79.65
85304;BME280;75708;47.930;13.782;2024-02-23T03:53:41;94534.47;;;6.54;81.30
85304;BME280;75708;47.930;13.782;2024-02-23T03:56:07;94548.00;;;6.47;80.34
85304;BME280;75708;47.930;13.782;2024-02-23T03:58:33;94552.19;;;6.38;82.78
85304;BME280;75708;47.930;13.782;2024-02-23T04:00:59;94553.75;;;6.34;82.81
85304;BME280;75708;47.930;13.782;2024-02-23T04:03:24;94544.25;;;6.33;81.22
85304;BME280;75708;47.930;13.782;2024-02-23T04:05:50;94540.25;;;6.30;81.16
85304;BME280;75708;47.930;13.782;2024-02-23T04:08:15;94537.56;;;6.25;82.47
85304;BME280;75708;47.930;13.782;2024-02-23T04:10:41;94535.66;;;6.16;84.66
85304;BME280;75708;47.930;13.782;2024-02-23T04:13:07;94537.78;;;6.19;83.76
85304;BME280;75708;47.930;13.782;2024-02-23T04:15:32;94547.03;;;6.06;84.88
85304;BME280;75708;47.930;13.782;2024-02-23T04:17:57;94522.25;;;5.85;84.25
85304;BME280;75708;47.930;13.782;2024-02-23T04:20:23;94546.19;;;5.95;84.17
85304;BME280;75708;47.930;13.782;2024-02-23T04:22:49;94563.69;;;5.96;83.69
85304;BME280;75708;47.930;13.782;2024-02-23T04:25:14;94564.50;;;6.02;83.08
85304;BME280;75708;47.930;13.782;2024-02-23T04:27:40;94565.28;;;5.97;82.45
85304;BME280;75708;47.930;13.782;2024-02-23T04:30:05;94567.06;;;5.92;83.73
85304;BME280;75708;47.930;13.782;2024-02-23T04:32:31;94572.13;;;5.93;83.95
85304;BME280;75708;47.930;13.782;2024-02-23T04:34:57;94575.28;;;5.90;83.80
85304;BME280;75708;47.930;13.782;2024-02-23T04:37:22;94583.78;;;5.92;84.07
85304;BME280;75708;47.930;13.782;2024-02-23T04:39:48;94576.94;;;5.96;82.74
85304;BME280;75708;47.930;13.782;2024-02-23T04:42:13;94573.19;;;5.92;83.33
85304;BME280;75708;47.930;13.782;2024-02-23T04:44:41;94555.94;;;5.90;83.73
85304;BME280;75708;47.930;13.782;2024-02-23T04:47:07;94560.38;;;5.84;83.20
85304;BME280;75708;47.930;13.782;2024-02-23T04:49:32;94561.19;;;5.85;84.98
85304;BME280;75708;47.930;13.782;2024-02-23T04:51:58;94554.25;;;5.79;84.70
85304;BME280;75708;47.930;13.782;2024-02-23T04:54:23;94553.22;;;5.80;84.62
85304;BME280;75708;47.930;13.782;2024-02-23T04:56:49;94561.66;;;5.72;86.94
85304;BME280;75708;47.930;13.782;2024-02-23T04:59:15;94566.66;;;5.73;83.89
85304;BME280;75708;47.930;13.782;2024-02-23T05:01:41;94557.91;;;5.73;84.81
85304;BME280;75708;47.930;13.782;2024-02-23T05:04:08;94567.47;;;5.74;82.87
85304;BME280;75708;47.930;13.782;2024-02-23T05:06:33;94565.47;;;5.91;80.98
85304;BME280;75708;47.930;13.782;2024-02-23T05:08:59;94559.81;;;5.77;83.97
85304;BME280;75708;47.930;13.782;2024-02-23T05:11:24;94567.72;;;5.72;83.67
85304;BME280;75708;47.930;13.782;2024-02-23T05:13:50;94562.97;;;5.74;82.48
85304;BME280;75708;47.930;13.782;2024-02-23T05:16:16;94552.09;;;5.71;81.54
85304;BME280;75708;47.930;13.782;2024-02-23T05:18:41;94553.88;;;6.02;75.78
85304;BME280;75708;47.930;13.782;2024-02-23T05:21:07;94542.28;;;6.13;75.93
85304;BME280;75708;47.930;13.782;2024-02-23T05:23:33;94552.03;;;6.02;80.92
85304;BME280;75708;47.930;13.782;2024-02-23T05:25:58;94556.94;;;5.84;81.88
85304;BME280;75708;47.930;13.782;2024-02-23T05:28:24;94558.50;;;5.80;82.46
85304;BME280;75708;47.930;13.782;2024-02-23T05:30:50;94557.41;;;5.71;83.09
85304;BME280;75708;47.930;13.782;2024-02-23T05:33:16;94550.75;;;5.68;83.32
85304;BME280;75708;47.930;13.782;2024-02-23T05:35:41;94548.84;;;5.63;83.83
85304;BME280;75708;47.930;13.782;2024-02-23T05:38:07;94542.22;;;5.61;83.35
85304;BME280;75708;47.930;13.782;2024-02-23T05:40:32;94542.19;;;5.56;83.85
85304;BME280;75708;47.930;13.782;2024-02-23T05:42:58;94546.72;;;5.60;84.17
85304;BME280;75708;47.930;13.782;2024-02-23T05:45:24;94544.59;;;5.57;84.57
85304;BME280;75708;47.930;13.782;2024-02-23T05:47:49;94548.25;;;5.51;84.60
85304;BME280;75708;47.930;13.782;2024-02-23T05:50:15;94546.97;;;5.59;84.18
85304;BME280;75708;47.930;13.782;2024-02-23T05:52:40;94552.28;;;5.64;83.04
85304;BME280;75708;47.930;13.782;2024-02-23T05:55:06;94549.94;;;5.62;83.23
85304;BME280;75708;47.930;13.782;2024-02-23T05:57:34;94545.88;;;5.55;84.19
85304;BME280;75708;47.930;13.782;2024-02-23T06:00:00;94549.59;;;5.54;84.18
85304;BME280;75708;47.930;13.782;2024-02-23T06:02:25;94562.53;;;5.50;85.31
85304;BME280;75708;47.930;13.782;2024-02-23T06:04:51;94554.59;;;5.50;86.48
85304;BME280;75708;47.930;13.782;2024-02-23T06:07:17;94551.47;;;5.53;85.81
85304;BME280;75708;47.930;13.782;2024-02-23T06:09:43;94555.97;;;5.58;83.50
85304;BME280;75708;47.930;13.782;2024-02-23T06:12:08;94558.06;;;5.56;84.04
85304;BME280;75708;47.930;13.782;2024-02-23T06:14:35;94549.06;;;5.57;83.06
85304;BME280;75708;47.930;13.782;2024-02-23T06:17:01;94538.78;;;5.60;83.84
85304;BME280;75708;47.930;13.782;2024-02-23T06:19:26;94541.19;;;5.62;84.61
85304;BME280;75708;47.930;13.782;2024-02-23T06:21:52;94543.53;;;5.58;84.14
85304;BME280;75708;47.930;13.782;2024-02-23T06:24:17;94543.53;;;5.58;83.87
85304;BME280;75708;47.930;13.782;2024-02-23T06:26:43;94553.81;;;5.55;84.61
85304;BME280;75708;47.930;13.782;2024-02-23T06:29:09;94560.16;;;5.49;85.01
85304;BME280;75708;47.930;13.782;2024-02-23T06:31:39;94566.50;;;5.48;85.70
85304;BME280;75708;47.930;13.782;2024-02-23T06:34:06;94567.50;;;5.42;85.17
85304;BME280;75708;47.930;13.782;2024-02-23T06:36:31;94563.03;;;5.42;86.06
85304;BME280;75708;47.930;13.782;2024-02-23T06:38:57;94570.41;;;5.40;85.54
85304;BME280;75708;47.930;13.782;2024-02-23T06:41:22;94577.59;;;5.45;85.23
85304;BME280;75708;47.930;13.782;2024-02-23T06:43:48;94580.25;;;5.45;85.00
85304;BME280;75708;47.930;13.782;2024-02-23T06:46:14;94578.09;;;5.42;85.66
85304;BME280;75708;47.930;13.782;2024-02-23T06:48:39;94569.13;;;5.43;85.45
85304;BME280;75708;47.930;13.782;2024-02-23T06:51:05;94581.06;;;5.45;85.47
85304;BME280;75708;47.930;13.782;2024-02-23T06:53:35;94580.75;;;5.42;85.24
85304;BME280;75708;47.930;13.782;2024-02-23T06:56:00;94582.34;;;5.43;85.50
85304;BME280;75708;47.930;13.782;2024-02-23T06:58:26;94590.28;;;5.43;86.10
85304;BME280;75708;47.930;13.782;2024-02-23T07:00:52;94577.31;;;5.41;85.72
85304;BME280;75708;47.930;13.782;2024-02-23T07:03:17;94593.75;;;5.43;85.50
85304;BME280;75708;47.930;13.782;2024-02-23T07:05:43;94590.03;;;5.44;84.68
85304;BME280;75708;47.930;13.782;2024-02-23T07:08:10;94576.16;;;5.32;86.33
85304;BME280;75708;47.930;13.782;2024-02-23T07:10:36;94597.78;;;5.51;86.49
85304;BME280;75708;47.930;13.782;2024-02-23T07:13:01;94596.25;;;5.60;85.60
85304;BME280;75708;47.930;13.782;2024-02-23T07:15:27;94589.34;;;5.59;85.06
85304;BME280;75708;47.930;13.782;2024-02-23T07:17:52;94587.84;;;5.68;84.36
85304;BME280;75708;47.930;13.782;2024-02-23T07:20:18;94581.19;;;5.65;84.31
85304;BME280;75708;47.930;13.782;2024-02-23T07:22:47;94585.22;;;5.73;83.39
85304;BME280;75708;47.930;13.782;2024-02-23T07:25:17;94592.91;;;5.75;83.95
85304;BME280;75708;47.930;13.782;2024-02-23T07:27:44;94588.72;;;5.84;83.85
85304;BME280;75708;47.930;13.782;2024-02-23T07:30:11;94584.78;;;5.86;82.77
85304;BME280;75708;47.930;13.782;2024-02-23T07:32:36;94591.09;;;5.80;83.78
85304;BME280;75708;47.930;13.782;2024-02-23T07:35:03;94599.31;;;5.84;83.82
85304;BME280;75708;47.930;13.782;2024-02-23T07:37:29;94595.84;;;5.78;84.28
85304;BME280;75708;47.930;13.782;2024-02-23T07:39:54;94598.53;;;5.83;83.65
85304;BME280;75708;47.930;13.782;2024-02-23T07:42:20;94598.03;;;5.86;82.40
85304;BME280;75708;47.930;13.782;2024-02-23T07:44:46;94611.88;;;5.93;82.41
85304;BME280;75708;47.930;13.782;2024-02-23T07:47:11;94607.69;;;6.02;82.37
85304;BME280;75708;47.930;13.782;2024-02-23T07:49:37;94607.19;;;6.06;82.70
85304;BME280;75708;47.930;13.782;2024-02-23T07:52:03;94600.34;;;6.15;82.27
85304;BME280;75708;47.930;13.782;2024-02-23T07:54:29;94608.03;;;6.16;82.09
85304;BME280;75708;47.930;13.782;2024-02-23T07:56:55;94608.81;;;6.12;83.16
85304;BME280;75708;47.930;13.782;2024-02-23T07:59:20;94604.91;;;6.24;81.41
85304;BME280;75708;47.930;13.782;2024-02-23T08:01:46;94604.88;;;6.19;82.05
85304;BME280;75708;47.930;13.782;2024-02-23T08:04:11;94600.13;;;6.26;81.58
85304;BME280;75708;47.930;13.782;2024-02-23T08:06:39;94591.69;;;6.34;80.95
85304;BME280;75708;47.930;13.782;2024-02-23T08:09:04;94594.09;;;6.36;81.46
85304;BME280;75708;47.930;13.782;2024-02-23T08:11:30;94605.53;;;6.41;82.21
85304;BME280;75708;47.930;13.782;2024-02-23T08:13:55;94606.09;;;6.54;80.32
85304;BME280;75708;47.930;13.782;2024-02-23T08:16:21;94604.00;;;6.56;80.05
85304;BME280;75708;47.930;13.782;2024-02-23T08:18:46;94600.28;;;6.62;81.33
85304;BME280;75708;47.930;13.782;2024-02-23T08:21:12;94610.94;;;6.72;80.19
85304;BME280;75708;47.930;13.782;2024-02-23T08:23:38;94599.28;;;6.68;80.26
85304;BME280;75708;47.930;13.782;2024-02-23T08:26:03;94611.44;;;6.64;80.54
85304;BME280;75708;47.930;13.782;2024-02-23T08:28:29;94608.50;;;6.50;82.44
85304;BME280;75708;47.930;13.782;2024-02-23T08:30:55;94610.84;;;6.41;82.44
85304;BME280;75708;47.930;13.782;2024-02-23T08:33:20;94617.94;;;6.31;81.90
85304;BME280;75708;47.930;13.782;2024-02-23T08:35:46;94619.72;;;6.20;81.23
85304;BME280;75708;47.930;13.782;2024-02-23T08:38:13;94612.28;;;6.17;81.95
85304;BME280;75708;47.930;13.782;2024-02-23T08:40:39;94615.03;;;6.32;83.28
85304;BME280;75708;47.930;13.782;2024-02-23T08:43:05;94597.41;;;6.06;84.17
85304;BME280;75708;47.930;13.782;2024-02-23T08:45:30;94613.69;;;6.30;84.26
85304;BME280;75708;47.930;13.782;2024-02-23T08:47:56;94614.59;;;6.03;86.11
85304;BME280;75708;47.930;13.782;2024-02-23T08:50:22;94618.69;;;5.84;87.94
85304;BME280;75708;47.930;13.782;2024-02-23T08:52:47;94616.06;;;5.52;83.20
85304;BME280;75708;47.930;13.782;2024-02-23T08:55:12;94618.44;;;4.95;83.52
85304;BME280;75708;47.930;13.782;2024-02-23T08:57:38;94609.56;;;4.58;83.38
85304;BME280;75708;47.930;13.782;2024-02-23T09:00:05;94613.06;;;4.63;83.63
85304;BME280;75708;47.930;13.782;2024-02-23T09:02:31;94616.06;;;4.50;83.95
85304;BME280;75708;47.930;13.782;2024-02-23T09:04:58;94602.00;;;4.44;85.83
85304;BME280;75708;47.930;13.782;2024-02-23T09:07:23;94611.78;;;4.66;86.32
85304;BME280;75708;47.930;13.782;2024-02-23T09:09:49;94611.59;;;4.50;85.95
85304;BME280;75708;47.930;13.782;2024-02-23T09:12:15;94600.56;;;4.80;84.84
85304;BME280;75708;47.930;13.782;2024-02-23T09:14:44;94613.19;;;4.73;84.91
85304;BME280;75708;47.930;13.782;2024-02-23T09:17:10;94608.97;;;4.77;85.25
85304;BME280;75708;47.930;13.782;2024-02-23T09:19:36;94606.41;;;5.09;82.77
85304;BME280;75708;47.930;13.782;2024-02-23T09:22:02;94581.38;;;4.95;83.27
85304;BME280;75708;47.930;13.782;2024-02-23T09:24:28;94576.78;;;5.12;82.72
85304;BME280;75708;47.930;13.782;2024-02-23T09:26:54;94579.31;;;4.97;82.87
85304;BME280;75708;47.930;13.782;2024-02-23T09:29:19;94579.75;;;5.16;82.71
85304;BME280;75708;47.930;13.782;2024-02-23T09:31:45;94584.78;;;5.17;nan
85304;BME280;75708;47.930;13.782;2024-02-23T09:34:11;94574.63;;;5.36;82.57
85304;BME280;75708;47.930;13.782;2024-02-23T09:36:36;94579.00;;;5.57;81.70
85304;BME280;75708;47.930;13.782;2024-02-23T09:39:02;94588.13;;;5.72;81.37
85304;BME280;75708;47.930;13.782;2024-02-23T09:41:30;94589.22;;;5.81;79.28
85304;BME280;75708;47.930;13.782;2024-02-23T09:43:59;94588.47;;;5.48;81.59
85304;BME280;75708;47.930;13.782;2024-02-23T09:46:25;94605.59;;;5.36;83.18
85304;BME280;75708;47.930;13.782;2024-02-23T09:48:52;94608.53;;;5.39;82.63
85304;BME280;75708;47.930;13.782;2024-02-23T09:51:19;94597.53;;;5.52;81.65
85304;BME280;75708;47.930;13.782;2024-02-23T09:53:46;94602.03;;;5.57;82.33
85304;BME280;75708;47.930;13.782;2024-02-23T09:56:15;94594.97;;;5.67;81.66
85304;BME280;75708;47.930;13.782;2024-02-23T09:58:43;94600.91;;;5.80;80.01
85304;BME280;75708;47.930;13.782;2024-02-23T10:01:10;94596.09;;;5.40;80.74
85304;BME280;75708;47.930;13.782;2024-02-23T10:03:37;94596.94;;;5.45;79.81
85304;BME280;75708;47.930;13.782;2024-02-23T10:06:03;94611.34;;;5.27;81.83
85304;BME280;75708;47.930;13.782;2024-02-23T10:08:30;94608.25;;;5.36;79.98
85304;BME280;75708;47.930;13.782;2024-02-23T10:10:56;94614.53;;;5.03;83.11
85304;BME280;75708;47.930;13.782;2024-02-23T10:13:23;94609.56;;;5.38;80.00
85304;BME280;75708;47.930;13.782;2024-02-23T10:15:51;94607.16;;;5.37;81.42
85304;BME280;75708;47.930;13.782;2024-02-23T10:18:17;94598.56;;;5.51;80.69
85304;BME280;75708;47.930;13.782;2024-02-23T10:20:43;94610.56;;;5.27;81.40
85304;BME280;75708;47.930;13.782;2024-02-23T10:23:09;94610.97;;;5.46;80.53
85304;BME280;75708;47.930;13.782;2024-02-23T10:25:35;94606.09;;;5.33;82.34
85304;BME280;75708;47.930;13.782;2024-02-23T10:28:02;94620.34;;;5.26;81.01
85304;BME280;75708;47.930;13.782;2024-02-23T10:30:28;94618.28;;;5.34;79.34
85304;BME280;75708;47.930;13.782;2024-02-23T10:32:56;94609.97;;;5.52;78.27
85304;BME280;75708;47.930;13.782;2024-02-23T10:35:22;94605.38;;;5.42;77.32
85304;BME280;75708;47.930;13.782;2024-02-23T10:37:49;94613.41;;;5.52;80.14
85304;BME280;75708;47.930;13.782;2024-02-23T10:40:19;94611.75;;;5.46;77.51
85304;BME280;75708;47.930;13.782;2024-02-23T10:42:46;94616.81;;;5.48;76.70
85304;BME280;75708;47.930;13.782;2024-02-23T10:45:20;94613.38;;;5.20;80.04
85304;BME280;75708;47.930;13.782;2024-02-23T10:47:48;94615.69;;;5.12;78.41
85304;BME280;75708;47.930;13.782;2024-02-23T10:50:14;94625.63;;;5.00;78.96
85304;BME280;75708;47.930;13.782;2024-02-23T10:52:42;94606.50;;;4.92;81.88
85304;BME280;75708;47.930;13.782;2024-02-23T10:55:10;94612.09;;;4.96;80.15
85304;BME280;75708;47.930;13.782;2024-02-23T10:57:36;94617.06;;;4.92;82.13
85304;BME280;75708;47.930;13.782;2024-02-23T11:00:03;94616.13;;;4.77;82.78
85304;BME280;75708;47.930;13.782;2024-02-23T11:02:39;94621.53;;;4.87;81.47
85304;BME280;75708;47.930;13.782;2024-02-23T11:05:06;94614.94;;;4.89;79.92
85304;BME280;75708;47.930;13.782;2024-02-23T11:07:38;94617.25;;;4.37;83.59
85304;BME280;75708;47.930;13.782;2024-02-23T11:10:04;94596.66;;;4.61;82.90
85304;BME280;75708;47.930;13.782;2024-02-23T11:12:30;94616.38;;;5.02;80.97
85304;BME280;75708;47.930;13.782;2024-02-23T11:15:00;94617.59;;;4.68;79.88
85304;BME280;75708;47.930;13.782;2024-02-23T11:17:30;94614.50;;;4.98;80.67
85304;BME280;75708;47.930;13.782;2024-02-23T11:19:56;94590.47;;;5.04;79.59
85304;BME280;75708;47.930;13.782;2024-02-23T11:22:34;94617.25;;;5.08;81.24
85304;BME280;75708;47.930;13.782;2024-02-23T11:25:04;94614.88;;;5.11;81.81
85304;BME280;75708;47.930;13.782;2024-02-23T11:27:40;94614.97;;;4.68;82.39
85304;BME280;75708;47.930;13.782;2024-02-23T11:30:08;94624.69;;;4.62;85.99
85304;BME280;75708;47.930;13.782;2024-02-23T11:32:40;94629.25;;;4.45;82.09
85304;BME280;75708;47.930;13.782;2024-02-23T11:35:16;94629.78;;;4.69;82.23
85304;BME280;75708;47.930;13.782;2024-02-23T11:38:03;94627.31;;;4.40;80.95
85304;BME280;75708;47.930;13.782;2024-02-23T11:40:31;94623.25;;;4.33;82.09
85304;BME280;75708;47.930;13.782;2024-02-23T11:42:58;94620.38;;;4.34;81.84
85304;BME280;75708;47.930;13.782;2024-02-23T11:45:25;94620.84;;;4.09;83.26
85304;BME280;75708;47.930;13.782;2024-02-23T11:47:53;94626.09;;;4.04;83.62
85304;BME280;75708;47.930;13.782;2024-02-23T11:50:18;94619.31;;;4.13;83.87
85304;BME280;75708;47.930;13.782;2024-02-23T11:52:47;94619.16;;;4.20;84.66
85304;BME280;75708;47.930;13.782;2024-02-23T11:55:18;94611.56;;;4.07;84.70
85304;BME280;75708;47.930;13.782;2024-02-23T11:57:45;94596.09;;;4.59;84.83
85304;BME280;75708;47.930;13.782;2024-02-23T12:00:10;94593.22;;;4.87;82.18
85304;BME280;75708;47.930;13.782;2024-02-23T12:02:36;94605.13;;;4.63;81.21
85304;BME280;75708;47.930;13.782;2024-02-23T12:05:02;94604.97;;;4.48;81.88
85304;BME280;75708;47.930;13.782;2024-02-23T12:07:32;94596.41;;;4.63;79.83
85304;BME280;75708;47.930;13.782;2024-02-23T12:09:58;94605.81;;;4.32;81.35
85304;BME280;75708;47.930;13.782;2024-02-23T12:12:25;94603.06;;;4.22;83.52
85304;BME280;75708;47.930;13.782;2024-02-23T12:14:51;94598.44;;;4.56;79.17
85304;BME280;75708;47.930;13.782;2024-02-23T12:17:17;94611.22;;;4.42;80.81
85304;BME280;75708;47.930;13.782;2024-02-23T12:19:42;94614.09;;;4.40;83.04
85304;BME280;75708;47.930;13.782;2024-02-23T12:22:10;94621.50;;;4.38;81.28
85304;BME280;75708;47.930;13.782;2024-02-23T12:24:36;94622.00;;;4.57;80.51
85304;BME280;75708;47.930;13.782;2024-02-23T12:27:01;94620.09;;;4.31;80.27
85304;BME280;75708;47.930;13.782;2024-02-23T12:29:27;94617.38;;;4.26;80.76
85304;BME280;75708;47.930;13.782;2024-02-23T12:32:11;94626.34;;;4.25;81.38
85304;BME280;75708;47.930;13.782;2024-02-23T12:34:36;94617.44;;;4.31;80.78
85304;BME280;75708;47.930;13.782;2024-02-23T12:37:02;94592.78;;;4.25;81.29
85304;BME280;75708;47.930;13.782;2024-02-23T12:39:29;94613.22;;;4.30;81.77
85304;BME280;75708;47.930;13.782;2024-02-23T12:41:54;94613.88;;;4.20;83.38
85304;BME280;75708;47.930;13.782;2024-02-23T12:44:22;94621.66;;;4.10;82.27
85304;BME280;75708;47.930;13.782;2024-02-23T12:46:47;94607.22;;;3.96;82.31
85304;BME280;75708;47.930;13.782;2024-02-23T12:49:13;94608.53;;;3.98;84.45
85304;BME280;75708;47.930;13.782;2024-02-23T12:51:38;94615.59;;;3.93;84.27
85304;BME280;75708;47.930;13.782;2024-02-23T12:54:04;94607.41;;;4.11;84.08
85304;BME280;75708;47.930;13.782;2024-02-23T12:56:30;94601.88;;;4.12;84.60